sensor_id;sensor_type;location;lat;lon;timestamp;temperature;humidity
52209;DHT22;38507;53.132;6.394;2023-04-24T00:01:32;11.10;99.90
52209;DHT22;38507;53.132;6.394;2023-04-24T00:03:59;11.10;99.90
52209;DHT22;38507;53.132;6.394;2023-04-24T00:06:26;11.40;99.90
52209;DHT22;38507;53.132;6.394;2023-04-24T00:09:01;11.30;99.90
52209;DHT22;38507;53.132;6.394;2023-04-24T00:11:28;11.00;99.90
52209;DHT22;38507;53.132;6.394;2023-04-24T00:13:54;11.10;99.90
52209;DHT22;38507;53.132;6.394;2023-04-24T00:16:19;11.20;99.90
52209;DHT22;38507;53.132;6.394;2023-04-24T00:18:45;11.00;99.90
52209;DHT22;38507;53.132;6.394;2023-04-24T00:21:13;11.00;99.90
52209;DHT22;38507;53.132;6.394;2023-04-24T00:23:39;11.00;99.90
52209;DHT22;38507;53.132;6.394;2023-04-24T00:26:04;10.90;99.90
52209;DHT22;38507;53.132;6.394;2023-04-24T00:28:30;11.00;99.90
52209;DHT22;38507;53.132;6.394;2023-04-24T00:30:56;10.90;99.90
52209;DHT22;38507;53.132;6.394;2023-04-24T00:33:21;10.80;99.90
52209;DHT22;38507;53.132;6.394;2023-04-24T00:35:47;10.80;99.90
52209;DHT22;38507;53.132;6.394;2023-04-24T00:38:13;11.00;99.90
52209;DHT22;38507;53.132;6.394;2023-04-24T00:40:38;10.80;99.90
52209;DHT22;38507;53.132;6.394;2023-04-24T00:43:04;10.70;99.90
52209;DHT22;38507;53.132;6.394;2023-04-24T00:45:30;10.80;99.90
52209;DHT22;38507;53.132;6.394;2023-04-24T00:47:57;10.70;99.90
52209;DHT22;38507;53.132;6.394;2023-04-24T00:50:24;10.70;99.90
52209;DHT22;38507;53.132;6.394;2023-04-24T00:52:50;10.70;99.90
52209;DHT22;38507;53.132;6.394;2023-04-24T00:55:16;10.70;99.90
52209;DHT22;38507;53.132;6.394;2023-04-24T00:57:43;10.70;99.90
52209;DHT22;38507;53.132;6.394;2023-04-24T01:00:09;10.60;99.90
52209;DHT22;38507;53.132;6.394;2023-04-24T01:02:39;10.60;99.90
52209;DHT22;38507;53.132;6.394;2023-04-24T01:05:07;10.60;99.90
52209;DHT22;38507;53.132;6.394;2023-04-24T01:07:34;10.50;99.90
52209;DHT22;38507;53.132;6.394;2023-04-24T01:09:59;10.40;99.90
52209;DHT22;38507;53.132;6.394;2023-04-24T01:12:25;10.50;99.90
52209;DHT22;38507;53.132;6.394;2023-04-24T01:14:51;10.40;99.90
52209;DHT22;38507;53.132;6.394;2023-04-24T01:17:16;10.80;99.90
52209;DHT22;38507;53.132;6.394;2023-04-24T01:19:42;10.40;99.90
52209;DHT22;38507;53.132;6.394;2023-04-24T01:22:14;10.40;99.90
52209;DHT22;38507;53.132;6.394;2023-04-24T01:24:40;10.40;99.90
52209;DHT22;38507;53.132;6.394;2023-04-24T01:27:07;10.40;99.90
52209;DHT22;38507;53.132;6.394;2023-04-24T01:29:34;10.30;99.90
52209;DHT22;38507;53.132;6.394;2023-04-24T01:31:59;10.70;99.90
52209;DHT22;38507;53.132;6.394;2023-04-24T01:34:26;10.30;99.90
52209;DHT22;38507;53.132;6.394;2023-04-24T01:36:52;10.30;99.90
52209;DHT22;38507;53.132;6.394;2023-04-24T01:39:18;10.70;99.90
52209;DHT22;38507;53.132;6.394;2023-04-24T01:41:46;10.50;99.90
52209;DHT22;38507;53.132;6.394;2023-04-24T01:44:12;10.30;99.90
52209;DHT22;38507;53.132;6.394;2023-04-24T01:46:38;10.50;99.90
52209;DHT22;38507;53.132;6.394;2023-04-24T01:49:03;10.30;99.90
52209;DHT22;38507;53.132;6.394;2023-04-24T01:51:29;10.20;99.90
52209;DHT22;38507;53.132;6.394;2023-04-24T01:53:55;10.20;99.90
52209;DHT22;38507;53.132;6.394;2023-04-24T01:56:22;10.20;99.90
52209;DHT22;38507;53.132;6.394;2023-04-24T01:58:51;10.20;99.90
52209;DHT22;38507;53.132;6.394;2023-04-24T02:01:21;10.20;99.90
52209;DHT22;38507;53.132;6.394;2023-04-24T02:03:48;10.40;99.90
52209;DHT22;38507;53.132;6.394;2023-04-24T02:06:14;10.50;99.90
52209;DHT22;38507;53.132;6.394;2023-04-24T02:08:40;10.20;99.90
52209;DHT22;38507;53.132;6.394;2023-04-24T02:11:05;10.10;99.90
52209;DHT22;38507;53.132;6.394;2023-04-24T02:13:31;10.10;99.90
52209;DHT22;38507;53.132;6.394;2023-04-24T02:15:58;10.40;99.90
52209;DHT22;38507;53.132;6.394;2023-04-24T02:18:24;10.10;99.90
52209;DHT22;38507;53.132;6.394;2023-04-24T02:20:50;10.10;99.90
52209;DHT22;38507;53.132;6.394;2023-04-24T02:23:15;10.40;99.90
52209;DHT22;38507;53.132;6.394;2023-04-24T02:25:41;10.10;99.90
52209;DHT22;38507;53.132;6.394;2023-04-24T02:28:06;10.00;99.90
52209;DHT22;38507;53.132;6.394;2023-04-24T02:30:32;10.10;99.90
52209;DHT22;38507;53.132;6.394;2023-04-24T02:32:58;10.00;99.90
52209;DHT22;38507;53.132;6.394;2023-04-24T02:35:23;10.50;99.90
52209;DHT22;38507;53.132;6.394;2023-04-24T02:37:49;10.00;99.90
52209;DHT22;38507;53.132;6.394;2023-04-24T02:40:15;10.30;99.90
52209;DHT22;38507;53.132;6.394;2023-04-24T02:42:40;10.40;99.90
52209;DHT22;38507;53.132;6.394;2023-04-24T02:45:06;10.00;99.90
52209;DHT22;38507;53.132;6.394;2023-04-24T02:47:32;10.00;99.90
52209;DHT22;38507;53.132;6.394;2023-04-24T02:49:58;10.10;99.90
52209;DHT22;38507;53.132;6.394;2023-04-24T02:52:23;10.00;99.90
52209;DHT22;38507;53.132;6.394;2023-04-24T02:54:49;10.00;99.90
52209;DHT22;38507;53.132;6.394;2023-04-24T02:57:15;10.30;99.90
52209;DHT22;38507;53.132;6.394;2023-04-24T02:59:40;10.00;99.90
52209;DHT22;38507;53.132;6.394;2023-04-24T03:02:06;10.00;99.90
52209;DHT22;38507;53.132;6.394;2023-04-24T03:04:31;10.10;99.90
52209;DHT22;38507;53.132;6.394;2023-04-24T03:06:57;10.00;99.90
52209;DHT22;38507;53.132;6.394;2023-04-24T03:09:24;10.20;99.90
52209;DHT22;38507;53.132;6.394;2023-04-24T03:11:50;10.00;99.90
52209;DHT22;38507;53.132;6.394;2023-04-24T03:14:16;10.20;99.90
52209;DHT22;38507;53.132;6.394;2023-04-24T03:16:42;10.10;99.90
52209;DHT22;38507;53.132;6.394;2023-04-24T03:19:08;10.70;99.90
52209;DHT22;38507;53.132;6.394;2023-04-24T03:21:33;10.10;99.90
52209;DHT22;38507;53.132;6.394;2023-04-24T03:24:01;10.50;99.90
52209;DHT22;38507;53.132;6.394;2023-04-24T03:26:26;10.20;99.90
52209;DHT22;38507;53.132;6.394;2023-04-24T03:28:52;10.10;99.90
52209;DHT22;38507;53.132;6.394;2023-04-24T03:31:18;10.60;99.90
52209;DHT22;38507;53.132;6.394;2023-04-24T03:33:44;10.40;99.90
52209;DHT22;38507;53.132;6.394;2023-04-24T03:36:10;10.50;99.90
52209;DHT22;38507;53.132;6.394;2023-04-24T03:38:35;10.10;99.90
52209;DHT22;38507;53.132;6.394;2023-04-24T03:41:01;10.10;99.90
52209;DHT22;38507;53.132;6.394;2023-04-24T03:43:27;10.10;99.90
52209;DHT22;38507;53.132;6.394;2023-04-24T03:45:53;10.10;99.90
52209;DHT22;38507;53.132;6.394;2023-04-24T03:48:18;10.10;99.90
52209;DHT22;38507;53.132;6.394;2023-04-24T03:50:44;10.10;99.90
52209;DHT22;38507;53.132;6.394;2023-04-24T03:53:10;10.10;99.90
52209;DHT22;38507;53.132;6.394;2023-04-24T03:55:35;10.10;99.90
52209;DHT22;38507;53.132;6.394;2023-04-24T03:58:01;10.50;99.90
52209;DHT22;38507;53.132;6.394;2023-04-24T04:00:27;10.60;99.90
52209;DHT22;38507;53.132;6.394;2023-04-24T04:02:53;10.50;99.90
52209;DHT22;38507;53.132;6.394;2023-04-24T04:05:18;10.60;99.90
52209;DHT22;38507;53.132;6.394;2023-04-24T04:07:44;10.20;99.90
52209;DHT22;38507;53.132;6.394;2023-04-24T04:10:10;10.10;99.90
52209;DHT22;38507;53.132;6.394;2023-04-24T04:12:35;10.30;99.90
52209;DHT22;38507;53.132;6.394;2023-04-24T04:15:01;10.00;99.90
52209;DHT22;38507;53.132;6.394;2023-04-24T04:17:27;10.00;99.90
52209;DHT22;38507;53.132;6.394;2023-04-24T04:19:53;10.10;99.90
52209;DHT22;38507;53.132;6.394;2023-04-24T04:22:18;10.00;99.90
52209;DHT22;38507;53.132;6.394;2023-04-24T04:24:44;10.10;99.90
52209;DHT22;38507;53.132;6.394;2023-04-24T04:27:09;10.00;99.90
52209;DHT22;38507;53.132;6.394;2023-04-24T04:29:36;10.40;99.90
52209;DHT22;38507;53.132;6.394;2023-04-24T04:32:02;10.60;99.90
52209;DHT22;38507;53.132;6.394;2023-04-24T04:34:28;10.10;99.90
52209;DHT22;38507;53.132;6.394;2023-04-24T04:36:55;10.00;99.90
52209;DHT22;38507;53.132;6.394;2023-04-24T04:39:20;10.30;99.90
52209;DHT22;38507;53.132;6.394;2023-04-24T04:41:46;10.40;99.90
52209;DHT22;38507;53.132;6.394;2023-04-24T04:44:14;10.00;99.90
52209;DHT22;38507;53.132;6.394;2023-04-24T04:46:40;10.00;99.90
52209;DHT22;38507;53.132;6.394;2023-04-24T04:49:07;10.00;99.90
52209;DHT22;38507;53.132;6.394;2023-04-24T04:51:34;10.00;99.90
52209;DHT22;38507;53.132;6.394;2023-04-24T04:53:59;10.00;99.90
52209;DHT22;38507;53.132;6.394;2023-04-24T04:56:25;10.40;99.90
52209;DHT22;38507;53.132;6.394;2023-04-24T04:58:51;10.00;99.90
52209;DHT22;38507;53.132;6.394;2023-04-24T05:01:17;10.50;99.90
52209;DHT22;38507;53.132;6.394;2023-04-24T05:03:42;10.00;99.90
52209;DHT22;38507;53.132;6.394;2023-04-24T05:06:08;10.30;99.90
52209;DHT22;38507;53.132;6.394;2023-04-24T05:08:34;10.50;99.90
52209;DHT22;38507;53.132;6.394;2023-04-24T05:11:00;10.30;99.90
52209;DHT22;38507;53.132;6.394;2023-04-24T05:13:26;10.00;99.90
52209;DHT22;38507;53.132;6.394;2023-04-24T05:15:52;10.10;99.90
52209;DHT22;38507;53.132;6.394;2023-04-24T05:18:17;10.10;99.90
52209;DHT22;38507;53.132;6.394;2023-04-24T05:20:43;10.10;99.90
52209;DHT22;38507;53.132;6.394;2023-04-24T05:23:09;10.10;99.90
52209;DHT22;38507;53.132;6.394;2023-04-24T05:25:35;10.10;99.90
52209;DHT22;38507;53.132;6.394;2023-04-24T05:28:01;10.10;99.90
52209;DHT22;38507;53.132;6.394;2023-04-24T05:30:28;10.20;99.90
52209;DHT22;38507;53.132;6.394;2023-04-24T05:32:53;10.00;99.90
52209;DHT22;38507;53.132;6.394;2023-04-24T05:35:19;10.40;99.90
52209;DHT22;38507;53.132;6.394;2023-04-24T05:37:44;10.00;99.90
52209;DHT22;38507;53.132;6.394;2023-04-24T05:40:11;10.00;99.90
52209;DHT22;38507;53.132;6.394;2023-04-24T05:42:37;10.30;99.90
52209;DHT22;38507;53.132;6.394;2023-04-24T05:45:03;10.00;99.90
52209;DHT22;38507;53.132;6.394;2023-04-24T05:47:29;10.00;99.90
52209;DHT22;38507;53.132;6.394;2023-04-24T05:49:55;9.90;99.90
52209;DHT22;38507;53.132;6.394;2023-04-24T05:52:21;9.90;99.90
52209;DHT22;38507;53.132;6.394;2023-04-24T05:54:46;10.00;99.90
52209;DHT22;38507;53.132;6.394;2023-04-24T05:57:12;9.90;99.90
52209;DHT22;38507;53.132;6.394;2023-04-24T05:59:38;10.10;99.90
52209;DHT22;38507;53.132;6.394;2023-04-24T06:02:04;9.90;99.90
52209;DHT22;38507;53.132;6.394;2023-04-24T06:04:29;9.80;99.90
52209;DHT22;38507;53.132;6.394;2023-04-24T06:06:55;9.90;99.90
52209;DHT22;38507;53.132;6.394;2023-04-24T06:09:24;10.30;99.90
52209;DHT22;38507;53.132;6.394;2023-04-24T06:11:50;9.90;99.90
52209;DHT22;38507;53.132;6.394;2023-04-24T06:14:19;9.90;99.90
52209;DHT22;38507;53.132;6.394;2023-04-24T06:16:45;9.80;99.90
52209;DHT22;38507;53.132;6.394;2023-04-24T06:19:10;9.90;99.90
52209;DHT22;38507;53.132;6.394;2023-04-24T06:21:36;9.90;99.90
52209;DHT22;38507;53.132;6.394;2023-04-24T06:24:02;10.20;99.90
52209;DHT22;38507;53.132;6.394;2023-04-24T06:26:29;9.90;99.90
52209;DHT22;38507;53.132;6.394;2023-04-24T06:28:54;10.00;99.90
52209;DHT22;38507;53.132;6.394;2023-04-24T06:31:20;9.90;99.90
52209;DHT22;38507;53.132;6.394;2023-04-24T06:33:48;9.90;99.90
52209;DHT22;38507;53.132;6.394;2023-04-24T06:36:14;9.90;99.90
52209;DHT22;38507;53.132;6.394;2023-04-24T06:38:39;10.00;99.90
52209;DHT22;38507;53.132;6.394;2023-04-24T06:41:05;9.90;99.90
52209;DHT22;38507;53.132;6.394;2023-04-24T06:43:31;10.50;99.90
52209;DHT22;38507;53.132;6.394;2023-04-24T06:45:58;9.90;99.90
52209;DHT22;38507;53.132;6.394;2023-04-24T06:48:24;10.00;99.90
52209;DHT22;38507;53.132;6.394;2023-04-24T06:50:50;9.90;99.90
52209;DHT22;38507;53.132;6.394;2023-04-24T06:53:16;10.00;99.90
52209;DHT22;38507;53.132;6.394;2023-04-24T06:55:42;10.20;99.90
52209;DHT22;38507;53.132;6.394;2023-04-24T06:58:10;9.90;99.90
52209;DHT22;38507;53.132;6.394;2023-04-24T07:00:36;10.50;99.90
52209;DHT22;38507;53.132;6.394;2023-04-24T07:03:01;9.90;99.90
52209;DHT22;38507;53.132;6.394;2023-04-24T07:05:27;10.00;99.90
52209;DHT22;38507;53.132;6.394;2023-04-24T07:07:53;10.00;99.90
52209;DHT22;38507;53.132;6.394;2023-04-24T07:10:19;10.00;99.90
52209;DHT22;38507;53.132;6.394;2023-04-24T07:12:45;10.00;99.90
52209;DHT22;38507;53.132;6.394;2023-04-24T07:15:12;9.90;99.90
52209;DHT22;38507;53.132;6.394;2023-04-24T07:17:37;9.90;99.90
52209;DHT22;38507;53.132;6.394;2023-04-24T07:20:09;10.10;99.90
52209;DHT22;38507;53.132;6.394;2023-04-24T07:22:36;9.80;99.90
52209;DHT22;38507;53.132;6.394;2023-04-24T07:25:02;9.80;99.90
52209;DHT22;38507;53.132;6.394;2023-04-24T07:27:28;9.80;99.90
52209;DHT22;38507;53.132;6.394;2023-04-24T07:29:54;9.70;99.90
52209;DHT22;38507;53.132;6.394;2023-04-24T07:32:20;9.70;99.90
52209;DHT22;38507;53.132;6.394;2023-04-24T07:34:45;9.60;99.90
52209;DHT22;38507;53.132;6.394;2023-04-24T07:37:11;10.00;99.90
52209;DHT22;38507;53.132;6.394;2023-04-24T07:39:37;9.60;99.90
52209;DHT22;38507;53.132;6.394;2023-04-24T07:42:03;9.70;99.90
52209;DHT22;38507;53.132;6.394;2023-04-24T07:44:29;9.60;99.90
52209;DHT22;38507;53.132;6.394;2023-04-24T07:46:55;9.50;99.90
52209;DHT22;38507;53.132;6.394;2023-04-24T07:49:21;9.70;99.90
52209;DHT22;38507;53.132;6.394;2023-04-24T07:51:46;9.50;99.90
52209;DHT22;38507;53.132;6.394;2023-04-24T07:54:12;9.50;99.90
52209;DHT22;38507;53.132;6.394;2023-04-24T07:56:38;9.40;99.90
52209;DHT22;38507;53.132;6.394;2023-04-24T07:59:05;9.40;99.90
52209;DHT22;38507;53.132;6.394;2023-04-24T08:01:30;9.40;99.90
52209;DHT22;38507;53.132;6.394;2023-04-24T08:03:56;9.40;99.90
52209;DHT22;38507;53.132;6.394;2023-04-24T08:06:22;9.70;99.90
52209;DHT22;38507;53.132;6.394;2023-04-24T08:08:48;9.80;99.90
52209;DHT22;38507;53.132;6.394;2023-04-24T08:11:13;9.30;99.90
52209;DHT22;38507;53.132;6.394;2023-04-24T08:13:39;9.30;99.90
52209;DHT22;38507;53.132;6.394;2023-04-24T08:16:05;9.20;99.90
52209;DHT22;38507;53.132;6.394;2023-04-24T08:18:30;9.10;99.90
52209;DHT22;38507;53.132;6.394;2023-04-24T08:20:56;9.10;99.90
52209;DHT22;38507;53.132;6.394;2023-04-24T08:23:26;9.30;99.90
52209;DHT22;38507;53.132;6.394;2023-04-24T08:25:52;9.10;99.90
52209;DHT22;38507;53.132;6.394;2023-04-24T08:28:18;9.10;99.90
52209;DHT22;38507;53.132;6.394;2023-04-24T08:30:46;9.10;99.90
52209;DHT22;38507;53.132;6.394;2023-04-24T08:33:13;9.00;99.90
52209;DHT22;38507;53.132;6.394;2023-04-24T08:35:39;9.00;99.90
52209;DHT22;38507;53.132;6.394;2023-04-24T08:38:04;9.00;99.90
52209;DHT22;38507;53.132;6.394;2023-04-24T08:40:33;9.00;99.90
52209;DHT22;38507;53.132;6.394;2023-04-24T08:43:00;9.30;99.90
52209;DHT22;38507;53.132;6.394;2023-04-24T08:45:26;8.90;99.90
52209;DHT22;38507;53.132;6.394;2023-04-24T08:47:53;8.90;99.90
52209;DHT22;38507;53.132;6.394;2023-04-24T08:50:20;8.90;99.90
52209;DHT22;38507;53.132;6.394;2023-04-24T08:52:48;8.90;99.90
52209;DHT22;38507;53.132;6.394;2023-04-24T08:55:15;8.90;99.90
52209;DHT22;38507;53.132;6.394;2023-04-24T08:57:45;8.90;99.90
52209;DHT22;38507;53.132;6.394;2023-04-24T09:00:11;8.90;99.90
52209;DHT22;38507;53.132;6.394;2023-04-24T09:02:41;9.00;99.90
52209;DHT22;38507;53.132;6.394;2023-04-24T09:05:08;8.90;99.90
52209;DHT22;38507;53.132;6.394;2023-04-24T09:07:35;9.00;99.90
52209;DHT22;38507;53.132;6.394;2023-04-24T09:10:02;9.00;99.90
52209;DHT22;38507;53.132;6.394;2023-04-24T09:12:28;9.00;99.90
52209;DHT22;38507;53.132;6.394;2023-04-24T09:14:54;9.10;99.90
52209;DHT22;38507;53.132;6.394;2023-04-24T09:17:20;9.40;99.90
52209;DHT22;38507;53.132;6.394;2023-04-24T09:19:48;9.10;99.90
52209;DHT22;38507;53.132;6.394;2023-04-24T09:22:15;9.10;99.90
52209;DHT22;38507;53.132;6.394;2023-04-24T09:24:40;9.60;99.90
52209;DHT22;38507;53.132;6.394;2023-04-24T09:27:07;9.10;99.90
52209;DHT22;38507;53.132;6.394;2023-04-24T09:29:32;9.10;99.90
52209;DHT22;38507;53.132;6.394;2023-04-24T09:31:58;9.10;99.90
52209;DHT22;38507;53.132;6.394;2023-04-24T09:34:26;9.10;99.90
52209;DHT22;38507;53.132;6.394;2023-04-24T09:36:54;9.70;99.90
52209;DHT22;38507;53.132;6.394;2023-04-24T09:39:21;9.10;99.90
52209;DHT22;38507;53.132;6.394;2023-04-24T09:41:54;9.30;99.90
52209;DHT22;38507;53.132;6.394;2023-04-24T09:44:27;9.20;99.90
52209;DHT22;38507;53.132;6.394;2023-04-24T09:46:57;9.50;99.90
52209;DHT22;38507;53.132;6.394;2023-04-24T09:49:25;9.00;99.90
52209;DHT22;38507;53.132;6.394;2023-04-24T09:51:51;9.10;99.90
52209;DHT22;38507;53.132;6.394;2023-04-24T09:54:21;9.40;99.90
52209;DHT22;38507;53.132;6.394;2023-04-24T09:56:49;9.20;99.90
52209;DHT22;38507;53.132;6.394;2023-04-24T09:59:16;9.30;99.90
52209;DHT22;38507;53.132;6.394;2023-04-24T10:01:42;9.60;99.90
52209;DHT22;38507;53.132;6.394;2023-04-24T10:04:17;9.40;99.90
52209;DHT22;38507;53.132;6.394;2023-04-24T10:06:47;9.60;99.90
52209;DHT22;38507;53.132;6.394;2023-04-24T10:09:15;9.60;99.90
52209;DHT22;38507;53.132;6.394;2023-04-24T10:11:45;9.60;99.90
52209;DHT22;38507;53.132;6.394;2023-04-24T10:14:19;9.70;99.90
52209;DHT22;38507;53.132;6.394;2023-04-24T10:16:46;9.60;99.90
52209;DHT22;38507;53.132;6.394;2023-04-24T10:19:13;10.00;99.90
52209;DHT22;38507;53.132;6.394;2023-04-24T10:21:41;9.60;99.90
52209;DHT22;38507;53.132;6.394;2023-04-24T10:24:17;9.60;99.90
52209;DHT22;38507;53.132;6.394;2023-04-24T10:26:43;9.60;99.90
52209;DHT22;38507;53.132;6.394;2023-04-24T10:29:14;9.70;99.90
52209;DHT22;38507;53.132;6.394;2023-04-24T10:31:40;9.70;99.90
52209;DHT22;38507;53.132;6.394;2023-04-24T10:34:08;9.80;99.90
52209;DHT22;38507;53.132;6.394;2023-04-24T10:36:35;10.10;99.90
52209;DHT22;38507;53.132;6.394;2023-04-24T10:39:03;9.70;99.90
52209;DHT22;38507;53.132;6.394;2023-04-24T10:41:31;9.70;99.90
52209;DHT22;38507;53.132;6.394;2023-04-24T10:44:08;9.70;99.90
52209;DHT22;38507;53.132;6.394;2023-04-24T10:46:37;9.90;99.90
52209;DHT22;38507;53.132;6.394;2023-04-24T10:49:07;9.80;99.90
52209;DHT22;38507;53.132;6.394;2023-04-24T10:51:53;9.70;99.90
52209;DHT22;38507;53.132;6.394;2023-04-24T10:54:27;9.70;99.90
52209;DHT22;38507;53.132;6.394;2023-04-24T10:56:56;9.70;99.90
52209;DHT22;38507;53.132;6.394;2023-04-24T10:59:39;9.70;99.90
52209;DHT22;38507;53.132;6.394;2023-04-24T11:02:07;9.60;99.90
52209;DHT22;38507;53.132;6.394;2023-04-24T11:04:33;9.90;99.90
52209;DHT22;38507;53.132;6.394;2023-04-24T11:07:02;9.90;99.90
52209;DHT22;38507;53.132;6.394;2023-04-24T11:09:28;9.80;99.90
52209;DHT22;38507;53.132;6.394;2023-04-24T11:17:35;9.80;99.90
52209;DHT22;38507;53.132;6.394;2023-04-24T11:20:10;10.20;99.90
52209;DHT22;38507;53.132;6.394;2023-04-24T11:22:39;9.80;99.90
52209;DHT22;38507;53.132;6.394;2023-04-24T11:25:08;9.90;99.90
52209;DHT22;38507;53.132;6.394;2023-04-24T11:27:43;10.00;99.90
52209;DHT22;38507;53.132;6.394;2023-04-24T11:30:10;9.90;99.90
52209;DHT22;38507;53.132;6.394;2023-04-24T11:32:41;10.00;99.90
52209;DHT22;38507;53.132;6.394;2023-04-24T11:37:46;10.20;99.90
52209;DHT22;38507;53.132;6.394;2023-04-24T11:40:15;9.90;99.90
52209;DHT22;38507;53.132;6.394;2023-04-24T11:42:45;10.20;99.90
52209;DHT22;38507;53.132;6.394;2023-04-24T11:45:12;9.80;99.90
52209;DHT22;38507;53.132;6.394;2023-04-24T11:47:38;9.80;99.90
52209;DHT22;38507;53.132;6.394;2023-04-24T11:50:10;9.60;99.90
52209;DHT22;38507;53.132;6.394;2023-04-24T11:52:38;9.50;99.90
52209;DHT22;38507;53.132;6.394;2023-04-24T11:55:07;9.40;99.90
52209;DHT22;38507;53.132;6.394;2023-04-24T11:57:33;9.40;99.90
52209;DHT22;38507;53.132;6.394;2023-04-24T12:00:04;9.40;99.90
52209;DHT22;38507;53.132;6.394;2023-04-24T12:02:30;9.20;99.90
52209;DHT22;38507;53.132;6.394;2023-04-24T12:04:56;9.30;99.90
52209;DHT22;38507;53.132;6.394;2023-04-24T12:07:23;9.30;99.90
52209;DHT22;38507;53.132;6.394;2023-04-24T12:09:55;9.30;99.90
52209;DHT22;38507;53.132;6.394;2023-04-24T12:12:24;9.30;99.90
52209;DHT22;38507;53.132;6.394;2023-04-24T12:14:58;9.70;99.90
52209;DHT22;38507;53.132;6.394;2023-04-24T12:17:26;9.40;99.90
52209;DHT22;38507;53.132;6.394;2023-04-24T12:19:52;9.90;99.90
52209;DHT22;38507;53.132;6.394;2023-04-24T12:22:19;9.40;99.90
52209;DHT22;38507;53.132;6.394;2023-04-24T12:25:02;9.60;99.90
52209;DHT22;38507;53.132;6.394;2023-04-24T12:27:32;10.00;99.90
52209;DHT22;38507;53.132;6.394;2023-04-24T12:30:03;9.80;99.90
52209;DHT22;38507;53.132;6.394;2023-04-24T12:32:29;9.40;99.90
52209;DHT22;38507;53.132;6.394;2023-04-24T12:34:55;9.50;99.90
52209;DHT22;38507;53.132;6.394;2023-04-24T12:37:24;9.40;99.90
52209;DHT22;38507;53.132;6.394;2023-04-24T12:42:27;10.10;99.90
52209;DHT22;38507;53.132;6.394;2023-04-24T12:44:57;9.60;99.90
52209;DHT22;38507;53.132;6.394;2023-04-24T12:47:24;9.70;99.90
52209;DHT22;38507;53.132;6.394;2023-04-24T12:49:50;9.80;99.90
52209;DHT22;38507;53.132;6.394;2023-04-24T12:52:21;9.80;99.90
52209;DHT22;38507;53.132;6.394;2023-04-24T12:54:47;9.70;99.90
52209;DHT22;38507;53.132;6.394;2023-04-24T12:57:13;9.80;99.90
52209;DHT22;38507;53.132;6.394;2023-04-24T12:59:39;9.70;99.90
52209;DHT22;38507;53.132;6.394;2023-04-24T13:02:05;9.60;99.90
52209;DHT22;38507;53.132;6.394;2023-04-24T13:04:31;9.70;99.90
52209;DHT22;38507;53.132;6.394;2023-04-24T13:06:57;9.70;99.90
52209;DHT22;38507;53.132;6.394;2023-04-24T13:09:23;9.80;99.90
52209;DHT22;38507;53.132;6.394;2023-04-24T13:11:49;9.90;99.90
52209;DHT22;38507;53.132;6.394;2023-04-24T13:14:15;9.80;99.90
52209;DHT22;38507;53.132;6.394;2023-04-24T13:16:41;9.80;99.90
52209;DHT22;38507;53.132;6.394;2023-04-24T13:19:07;9.90;99.90
52209;DHT22;38507;53.132;6.394;2023-04-24T13:21:32;9.90;99.90
52209;DHT22;38507;53.132;6.394;2023-04-24T13:23:58;10.00;99.90
52209;DHT22;38507;53.132;6.394;2023-04-24T13:26:25;9.90;99.90
52209;DHT22;38507;53.132;6.394;2023-04-24T13:28:50;10.10;99.90
52209;DHT22;38507;53.132;6.394;2023-04-24T13:31:16;10.00;99.90
52209;DHT22;38507;53.132;6.394;2023-04-24T13:33:42;9.90;99.90
52209;DHT22;38507;53.132;6.394;2023-04-24T13:36:08;9.70;99.90
52209;DHT22;38507;53.132;6.394;2023-04-24T13:38:34;10.10;99.90
52209;DHT22;38507;53.132;6.394;2023-04-24T13:41:00;10.10;99.90
52209;DHT22;38507;53.132;6.394;2023-04-24T13:43:26;9.70;99.90
52209;DHT22;38507;53.132;6.394;2023-04-24T13:45:52;9.70;99.90
52209;DHT22;38507;53.132;6.394;2023-04-24T13:48:17;9.60;99.90
52209;DHT22;38507;53.132;6.394;2023-04-24T13:50:43;9.60;99.90
52209;DHT22;38507;53.132;6.394;2023-04-24T13:53:12;9.60;99.90
52209;DHT22;38507;53.132;6.394;2023-04-24T13:55:38;9.60;99.90
52209;DHT22;38507;53.132;6.394;2023-04-24T13:58:04;9.50;99.90
52209;DHT22;38507;53.132;6.394;2023-04-24T14:00:30;9.50;99.90
52209;DHT22;38507;53.132;6.394;2023-04-24T14:02:56;9.40;99.90
52209;DHT22;38507;53.132;6.394;2023-04-24T14:05:22;9.30;99.90
52209;DHT22;38507;53.132;6.394;2023-04-24T14:07:47;9.20;99.90
52209;DHT22;38507;53.132;6.394;2023-04-24T14:10:13;9.60;99.90
52209;DHT22;38507;53.132;6.394;2023-04-24T14:12:39;9.10;99.90
52209;DHT22;38507;53.132;6.394;2023-04-24T14:15:05;9.10;99.90
52209;DHT22;38507;53.132;6.394;2023-04-24T14:17:31;9.10;99.90
52209;DHT22;38507;53.132;6.394;2023-04-24T14:19:57;9.80;99.90
52209;DHT22;38507;53.132;6.394;2023-04-24T14:22:25;9.00;99.90
52209;DHT22;38507;53.132;6.394;2023-04-24T14:24:50;8.90;99.90
52209;DHT22;38507;53.132;6.394;2023-04-24T14:27:16;8.90;99.90
52209;DHT22;38507;53.132;6.394;2023-04-24T14:29:42;9.00;99.90
52209;DHT22;38507;53.132;6.394;2023-04-24T14:32:07;9.10;99.90
52209;DHT22;38507;53.132;6.394;2023-04-24T14:34:34;9.10;99.90
52209;DHT22;38507;53.132;6.394;2023-04-24T14:37:00;9.20;99.90
52209;DHT22;38507;53.132;6.394;2023-04-24T14:39:25;9.20;99.90
52209;DHT22;38507;53.132;6.394;2023-04-24T14:41:51;9.10;99.90
52209;DHT22;38507;53.132;6.394;2023-04-24T14:44:17;9.10;99.90
52209;DHT22;38507;53.132;6.394;2023-04-24T14:46:43;9.00;99.90
52209;DHT22;38507;53.132;6.394;2023-04-24T14:49:08;9.00;99.90
52209;DHT22;38507;53.132;6.394;2023-04-24T14:51:36;9.00;99.90
52209;DHT22;38507;53.132;6.394;2023-04-24T14:54:01;9.00;99.90
52209;DHT22;38507;53.132;6.394;2023-04-24T14:56:28;9.10;99.90
52209;DHT22;38507;53.132;6.394;2023-04-24T14:58:53;9.10;99.90
52209;DHT22;38507;53.132;6.394;2023-04-24T15:01:20;9.00;99.90
52209;DHT22;38507;53.132;6.394;2023-04-24T15:03:46;9.00;99.90
52209;DHT22;38507;53.132;6.394;2023-04-24T15:06:12;9.20;99.90
52209;DHT22;38507;53.132;6.394;2023-04-24T15:08:38;9.00;99.90
52209;DHT22;38507;53.132;6.394;2023-04-24T15:11:03;9.30;99.90
52209;DHT22;38507;53.132;6.394;2023-04-24T15:13:29;9.00;99.90
52209;DHT22;38507;53.132;6.394;2023-04-24T15:15:55;9.10;99.90
52209;DHT22;38507;53.132;6.394;2023-04-24T15:18:21;9.00;99.90
52209;DHT22;38507;53.132;6.394;2023-04-24T15:20:47;9.00;99.90
52209;DHT22;38507;53.132;6.394;2023-04-24T15:23:12;9.00;99.90
52209;DHT22;38507;53.132;6.394;2023-04-24T15:25:38;9.00;99.90
52209;DHT22;38507;53.132;6.394;2023-04-24T15:28:04;9.00;99.90
52209;DHT22;38507;53.132;6.394;2023-04-24T15:30:30;9.00;99.90
52209;DHT22;38507;53.132;6.394;2023-04-24T15:32:56;9.10;99.90
52209;DHT22;38507;53.132;6.394;2023-04-24T15:35:22;9.10;99.90
52209;DHT22;38507;53.132;6.394;2023-04-24T15:37:48;9.00;99.90
52209;DHT22;38507;53.132;6.394;2023-04-24T15:40:17;8.90;99.90
52209;DHT22;38507;53.132;6.394;2023-04-24T15:42:44;9.00;99.90
52209;DHT22;38507;53.132;6.394;2023-04-24T15:45:11;9.00;99.90
52209;DHT22;38507;53.132;6.394;2023-04-24T15:47:37;9.00;99.90